createdAt,value
2023-05-15T00:01:21.803Z,16.74
2023-05-15T00:04:08.684Z,16.74
2023-05-15T00:06:55.566Z,16.72
2023-05-15T00:09:42.377Z,16.72
2023-05-15T00:12:29.506Z,16.69
2023-05-15T00:15:16.381Z,16.69
2023-05-15T00:18:03.242Z,16.68
2023-05-15T00:20:50.139Z,16.65
2023-05-15T00:23:36.982Z,16.65
2023-05-15T00:26:24.251Z,16.63
2023-05-15T00:29:11.173Z,16.61
2023-05-15T00:31:58.094Z,16.60
2023-05-15T00:34:45.059Z,16.59
2023-05-15T00:37:31.963Z,16.57
2023-05-15T00:40:22.323Z,16.54
2023-05-15T00:43:10.247Z,16.54
2023-05-15T00:45:57.911Z,16.54
2023-05-15T00:48:45.317Z,16.52
2023-05-15T00:51:32.199Z,16.51
2023-05-15T00:54:19.174Z,16.50
2023-05-15T00:57:08.726Z,16.49
2023-05-15T00:59:57.174Z,16.47
2023-05-15T01:02:44.352Z,16.46
2023-05-15T01:05:31.252Z,16.44
2023-05-15T01:08:39.047Z,16.41
2023-05-15T01:11:28.181Z,16.39
2023-05-15T01:14:15.005Z,16.39
2023-05-15T01:17:01.821Z,16.34
2023-05-15T01:19:50.913Z,16.35
2023-05-15T01:22:42.129Z,16.34
2023-05-15T01:25:44.146Z,16.33
2023-05-15T01:28:32.513Z,16.32
2023-05-15T01:31:20.714Z,16.29
2023-05-15T01:34:10.111Z,16.27
2023-05-15T01:37:00.344Z,16.26
2023-05-15T01:39:50.181Z,16.25
2023-05-15T01:42:39.670Z,16.23
2023-05-15T01:45:28.340Z,16.23
2023-05-15T01:48:15.654Z,16.19
2023-05-15T01:51:05.040Z,16.17
2023-05-15T01:53:52.854Z,16.13
2023-05-15T01:56:40.666Z,16.10
2023-05-15T01:59:29.294Z,16.08
2023-05-15T02:02:16.313Z,16.08
2023-05-15T02:05:04.271Z,16.06
2023-05-15T02:07:51.509Z,16.04
2023-05-15T02:10:38.988Z,16.02
2023-05-15T02:13:26.634Z,16.01
2023-05-15T02:16:13.601Z,15.99
2023-05-15T02:19:00.563Z,15.95
2023-05-15T02:21:47.605Z,15.94
2023-05-15T02:24:34.418Z,15.93
2023-05-15T02:27:28.545Z,15.92
2023-05-15T02:30:43.569Z,15.92
2023-05-15T02:33:46.378Z,15.91
2023-05-15T02:36:33.994Z,15.89
2023-05-15T02:39:23.523Z,15.88
2023-05-15T02:42:11.275Z,15.86
2023-05-15T02:44:58.462Z,15.85
2023-05-15T02:47:45.663Z,15.83
2023-05-15T02:50:32.616Z,15.80
2023-05-15T02:53:19.414Z,15.79
2023-05-15T02:56:06.650Z,15.78
2023-05-15T02:58:53.552Z,15.76
2023-05-15T03:01:40.420Z,15.74
2023-05-15T03:04:27.325Z,15.73
2023-05-15T03:07:14.520Z,15.72
2023-05-15T03:10:01.420Z,15.72
2023-05-15T03:12:48.242Z,15.71
2023-05-15T03:15:35.093Z,15.69
2023-05-15T03:18:22.053Z,15.68
2023-05-15T03:21:08.883Z,15.68
2023-05-15T03:23:56.208Z,15.67
2023-05-15T03:26:44.093Z,15.65
2023-05-15T03:29:30.981Z,15.65
2023-05-15T03:32:18.034Z,15.63
2023-05-15T03:35:05.364Z,15.63
2023-05-15T03:37:52.187Z,15.61
2023-05-15T03:40:39.674Z,15.60
2023-05-15T03:43:26.627Z,15.59
2023-05-15T03:46:13.545Z,15.56
2023-05-15T03:49:00.636Z,15.54
2023-05-15T03:51:47.497Z,15.51
2023-05-15T03:54:34.720Z,15.50
2023-05-15T03:57:21.609Z,15.49
2023-05-15T04:00:12.126Z,15.49
2023-05-15T04:02:59.032Z,15.48
2023-05-15T04:05:49.953Z,15.48
2023-05-15T04:08:37.537Z,15.47
2023-05-15T04:11:26.246Z,15.46
2023-05-15T04:14:13.502Z,15.45
2023-05-15T04:17:00.385Z,15.45
2023-05-15T04:19:47.955Z,15.43
2023-05-15T04:22:34.839Z,15.41
2023-05-15T04:25:21.804Z,15.40
2023-05-15T04:28:08.663Z,15.39
2023-05-15T04:30:55.510Z,15.37
2023-05-15T04:33:42.860Z,15.36
2023-05-15T04:36:29.702Z,15.35
2023-05-15T04:39:16.553Z,15.33
2023-05-15T04:42:03.790Z,15.33
2023-05-15T04:44:51.087Z,15.32
2023-05-15T04:47:38.070Z,15.31
2023-05-15T04:50:25.275Z,15.30
2023-05-15T04:53:12.312Z,15.29
2023-05-15T04:55:59.117Z,15.29
2023-05-15T04:58:45.928Z,15.26
2023-05-15T05:01:32.846Z,15.25
2023-05-15T05:04:20.232Z,15.25
2023-05-15T05:07:07.121Z,15.23
2023-05-15T05:09:53.907Z,15.23
2023-05-15T05:12:40.733Z,15.22
2023-05-15T05:15:27.738Z,15.21
2023-05-15T05:18:14.654Z,15.19
2023-05-15T05:21:02.449Z,15.19
2023-05-15T05:23:49.253Z,15.19
2023-05-15T05:26:36.144Z,15.18
2023-05-15T05:29:22.980Z,15.16
2023-05-15T05:32:09.878Z,15.15
2023-05-15T05:34:56.762Z,15.14
2023-05-15T05:37:43.573Z,15.14
2023-05-15T05:40:30.543Z,15.14
2023-05-15T05:43:17.370Z,15.15
2023-05-15T05:46:04.191Z,15.13
2023-05-15T05:48:51.039Z,15.10
2023-05-15T05:51:38.656Z,15.11
2023-05-15T05:54:28.528Z,15.11
2023-05-15T05:57:15.532Z,15.08
2023-05-15T06:00:02.803Z,15.08
2023-05-15T06:02:53.166Z,15.10
2023-05-15T06:05:40.109Z,15.11
2023-05-15T06:08:28.902Z,15.10
2023-05-15T06:11:16.013Z,15.09
2023-05-15T06:14:02.891Z,15.06
2023-05-15T06:16:50.352Z,15.05
2023-05-15T06:19:37.295Z,15.01
2023-05-15T06:22:24.263Z,14.98
2023-05-15T06:25:13.802Z,14.97
2023-05-15T06:28:01.150Z,14.94
2023-05-15T06:30:48.111Z,14.93
2023-05-15T06:33:34.898Z,14.92
2023-05-15T06:36:21.770Z,14.92
2023-05-15T06:39:10.817Z,14.91
2023-05-15T06:42:01.260Z,14.91
2023-05-15T06:44:49.587Z,14.90
2023-05-15T06:47:36.425Z,14.90
2023-05-15T06:50:23.293Z,14.89
2023-05-15T06:53:10.915Z,14.90
2023-05-15T06:55:58.551Z,14.89
2023-05-15T06:58:45.585Z,14.88
2023-05-15T07:01:32.499Z,14.88
2023-05-15T07:04:19.457Z,14.89
2023-05-15T07:07:06.409Z,14.90
2023-05-15T07:09:53.267Z,14.90
2023-05-15T07:12:40.073Z,14.91
2023-05-15T07:15:26.912Z,14.91
2023-05-15T07:18:13.822Z,14.91
2023-05-15T07:21:00.693Z,14.92
2023-05-15T07:23:47.521Z,14.92
2023-05-15T07:26:43.572Z,14.95
2023-05-15T07:29:33.678Z,14.95
2023-05-15T07:32:20.803Z,14.97
2023-05-15T07:35:07.941Z,14.98
2023-05-15T07:37:54.919Z,15.01
2023-05-15T07:40:41.814Z,15.06
2023-05-15T07:43:28.686Z,15.10
2023-05-15T07:46:15.630Z,15.16
2023-05-15T07:49:02.542Z,15.20
2023-05-15T07:51:49.424Z,15.25
2023-05-15T07:54:36.280Z,15.29
2023-05-15T07:57:23.140Z,15.37
2023-05-15T08:00:13.439Z,15.43
2023-05-15T08:03:00.670Z,15.48
2023-05-15T08:05:47.676Z,15.55
2023-05-15T08:08:34.545Z,15.61
2023-05-15T08:11:22.097Z,15.68
2023-05-15T08:14:09.917Z,15.75
2023-05-15T08:16:57.764Z,15.81
2023-05-15T08:19:44.614Z,15.87
2023-05-15T08:22:31.745Z,15.92
2023-05-15T08:25:18.693Z,15.98
2023-05-15T08:28:05.993Z,16.04
2023-05-15T08:30:52.983Z,16.09
2023-05-15T08:33:39.895Z,16.15
2023-05-15T08:36:26.840Z,16.19
2023-05-15T08:39:13.710Z,16.25
2023-05-15T08:42:19.245Z,16.29
2023-05-15T08:45:07.588Z,16.33
2023-05-15T08:47:55.093Z,16.34
2023-05-15T08:50:44.147Z,16.36
2023-05-15T08:53:31.088Z,16.42
2023-05-15T08:56:18.362Z,16.47
2023-05-15T08:59:05.228Z,16.50
2023-05-15T09:01:52.578Z,16.52
2023-05-15T09:04:39.429Z,16.54
2023-05-15T09:07:26.362Z,16.55
2023-05-15T09:10:13.917Z,16.57
2023-05-15T09:13:01.964Z,16.57
2023-05-15T09:15:48.893Z,16.60
2023-05-15T09:18:35.765Z,16.59
2023-05-15T09:21:22.819Z,16.60
2023-05-15T09:24:20.203Z,16.62
2023-05-15T09:27:08.158Z,16.63
2023-05-15T09:29:56.583Z,16.61
2023-05-15T09:32:43.774Z,16.63
2023-05-15T09:35:36.081Z,16.64
2023-05-15T09:38:22.965Z,16.64
2023-05-15T09:41:09.797Z,16.64
2023-05-15T09:43:57.285Z,16.64
2023-05-15T09:46:44.138Z,16.63
2023-05-15T09:49:33.327Z,16.64
2023-05-15T09:52:20.480Z,16.64
2023-05-15T09:55:07.718Z,16.64
2023-05-15T09:58:08.460Z,16.64
2023-05-15T10:00:55.737Z,16.66
2023-05-15T10:03:43.701Z,16.66
2023-05-15T10:06:42.968Z,16.67
2023-05-15T10:09:31.564Z,16.68
2023-05-15T10:12:18.433Z,16.70
2023-05-15T10:15:05.753Z,16.71
2023-05-15T10:17:53.290Z,16.75
2023-05-15T10:20:40.151Z,16.78
2023-05-15T10:23:27.366Z,16.80
2023-05-15T10:26:36.010Z,16.87
2023-05-15T10:29:25.364Z,16.91
2023-05-15T10:32:13.315Z,16.98
2023-05-15T10:35:00.400Z,17.05
2023-05-15T10:37:48.338Z,17.09
2023-05-15T10:40:37.725Z,17.17
2023-05-15T10:43:24.585Z,17.22
2023-05-15T10:46:11.638Z,17.28
2023-05-15T10:49:00.493Z,17.32
2023-05-15T10:51:47.305Z,17.38
2023-05-15T10:54:34.424Z,17.40
2023-05-15T10:57:22.119Z,17.45
2023-05-15T11:00:33.710Z,17.51
2023-05-15T11:03:48.034Z,17.55
2023-05-15T11:06:50.497Z,17.58
2023-05-15T11:09:38.002Z,17.64
2023-05-15T11:12:24.942Z,17.68
2023-05-15T11:15:12.315Z,17.73
2023-05-15T11:18:04.409Z,17.76
2023-05-15T11:20:53.996Z,17.81
2023-05-15T11:23:41.493Z,17.88
2023-05-15T11:26:34.330Z,17.91
2023-05-15T11:29:23.257Z,17.98
2023-05-15T11:32:28.753Z,18.03
2023-05-15T11:35:32.974Z,18.08
2023-05-15T11:38:24.927Z,18.12
2023-05-15T11:41:19.884Z,18.11
2023-05-15T11:44:06.879Z,18.12
2023-05-15T11:46:53.808Z,18.15
2023-05-15T11:49:40.775Z,18.18
2023-05-15T11:52:27.977Z,18.19
2023-05-15T11:55:15.788Z,18.20
2023-05-15T11:58:04.385Z,18.19
2023-05-15T12:00:53.448Z,18.19
2023-05-15T12:03:40.516Z,18.20
2023-05-15T12:06:27.469Z,18.19
2023-05-15T12:09:16.154Z,18.18
2023-05-15T12:12:04.450Z,18.19
2023-05-15T12:14:51.286Z,18.20
2023-05-15T12:17:39.470Z,18.20
2023-05-15T12:20:26.512Z,18.21
2023-05-15T12:23:17.342Z,18.22
2023-05-15T12:26:04.197Z,18.23
2023-05-15T12:28:51.617Z,18.25
2023-05-15T12:31:38.648Z,18.25
2023-05-15T12:34:26.102Z,18.28
2023-05-15T12:37:14.048Z,18.29
2023-05-15T12:40:02.685Z,18.32
2023-05-15T12:42:56.274Z,18.33
2023-05-15T12:45:43.221Z,18.35
2023-05-15T12:48:32.277Z,18.38
2023-05-15T12:51:22.488Z,18.40
2023-05-15T12:54:19.990Z,18.43
2023-05-15T12:57:08.570Z,18.46
2023-05-15T12:59:55.390Z,18.50
2023-05-15T13:02:46.041Z,18.52
2023-05-15T13:05:34.235Z,18.53
2023-05-15T13:08:21.049Z,18.56
2023-05-15T13:11:12.250Z,18.59
2023-05-15T13:13:59.115Z,18.59
2023-05-15T13:16:47.048Z,18.63
2023-05-15T13:19:34.000Z,18.65
2023-05-15T13:22:20.791Z,18.68
2023-05-15T13:25:08.801Z,18.72
2023-05-15T13:27:58.322Z,18.73
2023-05-15T13:30:45.703Z,18.78
2023-05-15T13:33:33.983Z,18.80
2023-05-15T13:36:25.895Z,18.83
2023-05-15T13:39:12.731Z,18.86
2023-05-15T13:41:59.583Z,18.87
2023-05-15T13:44:46.410Z,18.89
2023-05-15T13:47:33.350Z,18.93
2023-05-15T13:50:20.238Z,18.97
2023-05-15T13:53:07.538Z,19.01
2023-05-15T13:55:54.447Z,19.05
2023-05-15T13:58:42.420Z,19.07
2023-05-15T14:01:29.343Z,19.11
2023-05-15T14:04:16.767Z,19.12
2023-05-15T14:07:03.716Z,19.15
2023-05-15T14:09:53.368Z,19.17
2023-05-15T14:12:40.367Z,19.19
2023-05-15T14:15:27.214Z,19.21
2023-05-15T14:18:14.050Z,19.25
2023-05-15T14:21:00.941Z,19.28
2023-05-15T14:23:47.749Z,19.31
2023-05-15T14:26:34.650Z,19.33
2023-05-15T14:29:21.519Z,19.36
2023-05-15T14:32:08.849Z,19.38
2023-05-15T14:34:59.826Z,19.40
2023-05-15T14:37:46.850Z,19.41
2023-05-15T14:40:34.034Z,19.42
2023-05-15T14:43:20.847Z,19.44
2023-05-15T14:46:09.209Z,19.45
2023-05-15T14:48:58.030Z,19.46
2023-05-15T14:51:44.884Z,19.47
2023-05-15T14:54:32.111Z,19.48
2023-05-15T14:57:20.418Z,19.50
2023-05-15T15:00:08.134Z,19.51
2023-05-15T15:02:55.071Z,19.52
2023-05-15T15:05:41.970Z,19.53
2023-05-15T15:08:28.775Z,19.55
2023-05-15T15:11:15.585Z,19.56
2023-05-15T15:14:03.868Z,19.57
2023-05-15T15:16:50.807Z,19.58
2023-05-15T15:19:37.690Z,19.60
2023-05-15T15:22:24.502Z,19.58
2023-05-15T15:25:11.539Z,19.59
2023-05-15T15:27:58.397Z,19.59
2023-05-15T15:30:45.459Z,19.59
2023-05-15T15:33:32.336Z,19.59
2023-05-15T15:36:19.178Z,19.58
2023-05-15T15:39:06.014Z,19.58
2023-05-15T15:41:52.925Z,19.58
2023-05-15T15:44:39.866Z,19.59
2023-05-15T15:47:27.168Z,19.59
2023-05-15T15:50:14.049Z,19.60
2023-05-15T15:53:00.927Z,19.59
2023-05-15T15:55:47.852Z,19.60
2023-05-15T15:58:34.721Z,19.59
2023-05-15T16:01:22.330Z,19.59
2023-05-15T16:04:09.312Z,19.57
2023-05-15T16:06:56.158Z,19.57
2023-05-15T16:09:43.101Z,19.57
2023-05-15T16:12:29.930Z,19.57
2023-05-15T16:18:07.758Z,19.55
2023-05-15T16:20:54.636Z,19.53
2023-05-15T16:23:41.570Z,19.52
2023-05-15T16:26:28.404Z,19.52
2023-05-15T16:29:15.233Z,19.49
2023-05-15T16:32:02.113Z,19.47
2023-05-15T16:34:48.940Z,19.46
2023-05-15T16:37:35.788Z,19.45
2023-05-15T16:40:22.619Z,19.43
2023-05-15T16:43:09.735Z,19.42
2023-05-15T16:45:56.681Z,19.41
2023-05-15T16:48:44.287Z,19.41
2023-05-15T16:51:31.598Z,19.39
2023-05-15T16:54:18.872Z,19.38
2023-05-15T16:57:06.360Z,19.38
2023-05-15T16:59:53.334Z,19.36
2023-05-15T17:02:41.813Z,19.35
2023-05-15T17:05:28.750Z,19.33
2023-05-15T17:08:15.591Z,19.32
2023-05-15T17:11:02.417Z,19.32
2023-05-15T17:13:49.238Z,19.29
2023-05-15T17:16:36.199Z,19.29
2023-05-15T17:19:23.054Z,19.29
2023-05-15T17:22:09.858Z,19.27
2023-05-15T17:24:56.746Z,19.25
2023-05-15T17:27:43.571Z,19.24
2023-05-15T17:30:30.490Z,19.23
2023-05-15T17:33:17.372Z,19.22
2023-05-15T17:36:04.512Z,19.20
2023-05-15T17:38:51.339Z,19.19
2023-05-15T17:41:38.173Z,19.20
2023-05-15T17:44:28.020Z,19.17
2023-05-15T17:47:14.859Z,19.16
2023-05-15T17:50:01.638Z,19.15
2023-05-15T17:52:48.518Z,19.14
2023-05-15T17:55:35.397Z,19.12
2023-05-15T17:58:22.296Z,19.10
2023-05-15T18:01:09.117Z,19.09
2023-05-15T18:03:56.224Z,19.08
2023-05-15T18:06:43.176Z,19.07
2023-05-15T18:09:30.021Z,19.06
2023-05-15T18:12:16.829Z,19.06
2023-05-15T18:15:03.844Z,19.04
2023-05-15T18:17:50.646Z,19.02
2023-05-15T18:20:37.549Z,19.01
2023-05-15T18:23:24.328Z,18.99
2023-05-15T18:26:11.146Z,18.98
2023-05-15T18:28:57.915Z,18.97
2023-05-15T18:31:45.134Z,18.95
2023-05-15T18:34:32.062Z,18.94
2023-05-15T18:37:19.045Z,18.91
2023-05-15T18:40:06.423Z,18.91
2023-05-15T18:42:56.981Z,18.90
2023-05-15T18:45:43.800Z,18.88
2023-05-15T18:48:30.688Z,18.86
2023-05-15T18:51:17.491Z,18.85
2023-05-15T18:54:04.302Z,18.82
2023-05-15T18:56:51.187Z,18.79
2023-05-15T18:59:38.012Z,18.77
2023-05-15T19:02:26.246Z,18.76
2023-05-15T19:05:13.670Z,18.74
2023-05-15T19:08:00.605Z,18.72
2023-05-15T19:10:48.354Z,18.69
2023-05-15T19:13:35.652Z,18.66
2023-05-15T19:16:26.901Z,18.64
2023-05-15T19:19:13.974Z,18.61
2023-05-15T19:22:01.001Z,18.60
2023-05-15T19:24:47.819Z,18.58
2023-05-15T19:27:34.854Z,18.57
2023-05-15T19:30:21.624Z,18.55
2023-05-15T19:33:08.558Z,18.52
2023-05-15T19:35:55.617Z,18.51
2023-05-15T19:38:42.439Z,18.47
2023-05-15T19:41:29.254Z,18.46
2023-05-15T19:44:16.221Z,18.45
2023-05-15T19:47:03.504Z,18.42
2023-05-15T19:49:50.341Z,18.39
2023-05-15T19:52:37.220Z,18.37
2023-05-15T19:55:24.140Z,18.35
2023-05-15T19:58:11.129Z,18.33
2023-05-15T20:00:58.154Z,18.31
2023-05-15T20:03:45.086Z,18.29
2023-05-15T20:06:31.998Z,18.27
2023-05-15T20:09:18.881Z,18.24
2023-05-15T20:12:06.371Z,18.23
2023-05-15T20:14:53.187Z,18.20
2023-05-15T20:17:41.291Z,18.18
2023-05-15T20:20:28.387Z,18.16
2023-05-15T20:23:15.440Z,18.14
2023-05-15T20:26:03.416Z,18.11
2023-05-15T20:28:50.343Z,18.09
2023-05-15T20:31:38.285Z,18.07
2023-05-15T20:34:25.358Z,18.04
2023-05-15T20:37:13.342Z,18.01
2023-05-15T20:40:00.283Z,17.98
2023-05-15T20:42:47.316Z,17.96
2023-05-15T20:45:34.366Z,17.93
2023-05-15T20:48:21.413Z,17.90
2023-05-15T20:51:08.218Z,17.88
2023-05-15T20:53:55.163Z,17.85
2023-05-15T20:56:41.978Z,17.83
2023-05-15T20:59:28.913Z,17.79
2023-05-15T21:02:16.094Z,17.76
2023-05-15T21:05:02.975Z,17.74
2023-05-15T21:07:49.960Z,17.73
2023-05-15T21:10:36.770Z,17.70
2023-05-15T21:13:23.568Z,17.66
2023-05-15T21:16:10.482Z,17.64
2023-05-15T21:18:57.437Z,17.61
2023-05-15T21:21:44.355Z,17.59
2023-05-15T21:24:31.238Z,17.56
2023-05-15T21:27:18.140Z,17.55
2023-05-15T21:30:05.967Z,17.52
2023-05-15T21:32:52.989Z,17.49
2023-05-15T21:35:39.880Z,17.46
2023-05-15T21:38:26.735Z,17.44
2023-05-15T21:41:13.546Z,17.42
2023-05-15T21:44:00.439Z,17.40
2023-05-15T21:46:47.366Z,17.37
2023-05-15T21:49:34.236Z,17.34
2023-05-15T21:52:21.660Z,17.32
2023-05-15T21:55:08.979Z,17.30
2023-05-15T21:57:55.842Z,17.29
2023-05-15T22:00:42.684Z,17.25
2023-05-15T22:03:29.666Z,17.23
2023-05-15T22:06:17.303Z,17.21
2023-05-15T22:09:04.206Z,17.18
2023-05-15T22:11:51.033Z,17.14
2023-05-15T22:14:44.199Z,17.12
2023-05-15T22:17:37.892Z,17.09
2023-05-15T22:20:25.128Z,17.05
2023-05-15T22:23:12.268Z,17.03
2023-05-15T22:25:59.095Z,17.01
2023-05-15T22:28:47.239Z,16.99
2023-05-15T22:31:34.086Z,16.96
2023-05-15T22:34:21.804Z,16.94
2023-05-15T22:37:08.571Z,16.91
2023-05-15T22:39:55.902Z,16.89
2023-05-15T22:42:42.723Z,16.87
2023-05-15T22:45:29.616Z,16.83
2023-05-15T22:48:16.469Z,16.82
2023-05-15T22:51:03.378Z,16.79
2023-05-15T22:53:50.236Z,16.78
2023-05-15T22:56:37.024Z,16.75
2023-05-15T22:59:23.895Z,16.73
2023-05-15T23:02:10.940Z,16.71
2023-05-15T23:04:57.872Z,16.68
2023-05-15T23:07:44.673Z,16.67
2023-05-15T23:10:31.504Z,16.65
2023-05-15T23:13:18.314Z,16.63
2023-05-15T23:16:05.823Z,16.60
2023-05-15T23:18:52.897Z,16.58
2023-05-15T23:21:39.849Z,16.56
2023-05-15T23:24:26.637Z,16.54
2023-05-15T23:27:13.518Z,16.53
2023-05-15T23:30:00.626Z,16.50
2023-05-15T23:32:47.550Z,16.47
2023-05-15T23:35:34.421Z,16.45
2023-05-15T23:38:23.353Z,16.43
2023-05-15T23:41:10.090Z,16.41
2023-05-15T23:43:56.933Z,16.36
2023-05-15T23:46:43.778Z,16.35
2023-05-15T23:49:32.800Z,16.31
2023-05-15T23:52:19.513Z,16.28
2023-05-15T23:55:07.576Z,16.26
2023-05-15T23:57:54.437Z,16.23
